sensor_id;sensor_type;location;lat;lon;timestamp;P1;durP1;ratioP1;P2;durP2;ratioP2
53781;SDS011;39692;53.114;7.060;2022-11-23T00:00:21;12.65;;;8.88;;
53781;SDS011;39692;53.114;7.060;2022-11-23T00:02:51;14.55;;;8.80;;
53781;SDS011;39692;53.114;7.060;2022-11-23T00:05:17;13.30;;;8.82;;
53781;SDS011;39692;53.114;7.060;2022-11-23T00:07:43;15.05;;;9.73;;
53781;SDS011;39692;53.114;7.060;2022-11-23T00:10:09;16.60;;;10.27;;
53781;SDS011;39692;53.114;7.060;2022-11-23T00:12:34;20.80;;;9.35;;
53781;SDS011;39692;53.114;7.060;2022-11-23T00:15:00;16.35;;;10.32;;
53781;SDS011;39692;53.114;7.060;2022-11-23T00:17:26;15.43;;;9.38;;
53781;SDS011;39692;53.114;7.060;2022-11-23T00:19:51;15.45;;;8.95;;
53781;SDS011;39692;53.114;7.060;2022-11-23T00:22:17;15.13;;;8.18;;
53781;SDS011;39692;53.114;7.060;2022-11-23T00:24:43;13.63;;;8.55;;
53781;SDS011;39692;53.114;7.060;2022-11-23T00:27:08;15.07;;;9.80;;
53781;SDS011;39692;53.114;7.060;2022-11-23T00:29:34;15.20;;;9.30;;
53781;SDS011;39692;53.114;7.060;2022-11-23T00:32:00;17.15;;;10.30;;
53781;SDS011;39692;53.114;7.060;2022-11-23T00:34:25;15.85;;;10.50;;
53781;SDS011;39692;53.114;7.060;2022-11-23T00:36:51;15.35;;;10.23;;
53781;SDS011;39692;53.114;7.060;2022-11-23T00:39:17;16.33;;;9.80;;
53781;SDS011;39692;53.114;7.060;2022-11-23T00:41:43;16.23;;;9.65;;
53781;SDS011;39692;53.114;7.060;2022-11-23T00:44:08;18.45;;;9.68;;
53781;SDS011;39692;53.114;7.060;2022-11-23T00:46:34;15.25;;;9.30;;
53781;SDS011;39692;53.114;7.060;2022-11-23T00:49:00;15.90;;;9.15;;
53781;SDS011;39692;53.114;7.060;2022-11-23T00:51:29;15.18;;;9.40;;
53781;SDS011;39692;53.114;7.060;2022-11-23T00:53:58;12.95;;;9.35;;
53781;SDS011;39692;53.114;7.060;2022-11-23T00:56:24;15.88;;;9.73;;
53781;SDS011;39692;53.114;7.060;2022-11-23T00:58:51;15.25;;;9.60;;
53781;SDS011;39692;53.114;7.060;2022-11-23T01:01:19;20.63;;;9.75;;
53781;SDS011;39692;53.114;7.060;2022-11-23T01:03:47;13.85;;;8.60;;
53781;SDS011;39692;53.114;7.060;2022-11-23T01:08:49;15.80;;;9.15;;
53781;SDS011;39692;53.114;7.060;2022-11-23T01:11:15;16.45;;;8.75;;
53781;SDS011;39692;53.114;7.060;2022-11-23T01:13:42;16.33;;;9.38;;
53781;SDS011;39692;53.114;7.060;2022-11-23T01:16:21;18.75;;;9.32;;
53781;SDS011;39692;53.114;7.060;2022-11-23T01:18:51;13.25;;;8.98;;
53781;SDS011;39692;53.114;7.060;2022-11-23T01:21:18;19.83;;;9.23;;
53781;SDS011;39692;53.114;7.060;2022-11-23T01:23:44;16.10;;;9.77;;
53781;SDS011;39692;53.114;7.060;2022-11-23T01:26:09;17.55;;;9.15;;
53781;SDS011;39692;53.114;7.060;2022-11-23T01:28:36;13.65;;;8.75;;
53781;SDS011;39692;53.114;7.060;2022-11-23T01:31:25;14.25;;;9.73;;
53781;SDS011;39692;53.114;7.060;2022-11-23T01:33:53;17.00;;;9.40;;
53781;SDS011;39692;53.114;7.060;2022-11-23T01:36:21;14.90;;;9.35;;
53781;SDS011;39692;53.114;7.060;2022-11-23T01:38:49;16.70;;;9.15;;
53781;SDS011;39692;53.114;7.060;2022-11-23T01:41:16;14.82;;;9.52;;
53781;SDS011;39692;53.114;7.060;2022-11-23T01:43:46;15.32;;;8.85;;
53781;SDS011;39692;53.114;7.060;2022-11-23T01:46:13;13.45;;;9.13;;
53781;SDS011;39692;53.114;7.060;2022-11-23T01:48:42;15.85;;;9.80;;
53781;SDS011;39692;53.114;7.060;2022-11-23T01:51:17;15.02;;;9.63;;
53781;SDS011;39692;53.114;7.060;2022-11-23T01:53:46;15.13;;;9.60;;
53781;SDS011;39692;53.114;7.060;2022-11-23T01:56:16;15.57;;;9.57;;
53781;SDS011;39692;53.114;7.060;2022-11-23T01:58:45;14.82;;;9.40;;
53781;SDS011;39692;53.114;7.060;2022-11-23T02:01:13;16.27;;;9.32;;
53781;SDS011;39692;53.114;7.060;2022-11-23T02:03:40;15.88;;;9.02;;
53781;SDS011;39692;53.114;7.060;2022-11-23T02:06:10;14.05;;;9.00;;
53781;SDS011;39692;53.114;7.060;2022-11-23T02:08:40;16.58;;;9.57;;
53781;SDS011;39692;53.114;7.060;2022-11-23T02:11:07;17.35;;;9.82;;
53781;SDS011;39692;53.114;7.060;2022-11-23T02:13:33;14.63;;;9.13;;
53781;SDS011;39692;53.114;7.060;2022-11-23T02:15:59;13.18;;;8.98;;
53781;SDS011;39692;53.114;7.060;2022-11-23T02:18:26;14.25;;;9.20;;
53781;SDS011;39692;53.114;7.060;2022-11-23T02:20:55;14.68;;;8.25;;
53781;SDS011;39692;53.114;7.060;2022-11-23T02:26:16;15.00;;;9.87;;
53781;SDS011;39692;53.114;7.060;2022-11-23T02:28:48;13.98;;;9.10;;
53781;SDS011;39692;53.114;7.060;2022-11-23T02:31:21;13.70;;;8.75;;
53781;SDS011;39692;53.114;7.060;2022-11-23T02:33:47;13.23;;;8.35;;
53781;SDS011;39692;53.114;7.060;2022-11-23T02:39:11;16.08;;;10.05;;
53781;SDS011;39692;53.114;7.060;2022-11-23T02:41:43;16.92;;;9.80;;
53781;SDS011;39692;53.114;7.060;2022-11-23T02:44:17;14.07;;;9.35;;
53781;SDS011;39692;53.114;7.060;2022-11-23T02:46:44;12.80;;;9.40;;
53781;SDS011;39692;53.114;7.060;2022-11-23T02:49:10;16.70;;;11.45;;
53781;SDS011;39692;53.114;7.060;2022-11-23T02:51:36;15.10;;;9.50;;
53781;SDS011;39692;53.114;7.060;2022-11-23T02:54:01;16.98;;;9.45;;
53781;SDS011;39692;53.114;7.060;2022-11-23T02:56:27;17.30;;;9.45;;
53781;SDS011;39692;53.114;7.060;2022-11-23T02:58:53;16.20;;;10.43;;
53781;SDS011;39692;53.114;7.060;2022-11-23T03:01:18;14.05;;;8.63;;
53781;SDS011;39692;53.114;7.060;2022-11-23T03:03:44;13.45;;;9.38;;
53781;SDS011;39692;53.114;7.060;2022-11-23T03:06:10;14.18;;;9.27;;
53781;SDS011;39692;53.114;7.060;2022-11-23T03:08:36;13.27;;;8.52;;
53781;SDS011;39692;53.114;7.060;2022-11-23T03:11:02;16.02;;;10.13;;
53781;SDS011;39692;53.114;7.060;2022-11-23T03:13:27;15.52;;;9.05;;
53781;SDS011;39692;53.114;7.060;2022-11-23T03:15:54;21.38;;;10.05;;
53781;SDS011;39692;53.114;7.060;2022-11-23T03:18:22;17.55;;;10.57;;
53781;SDS011;39692;53.114;7.060;2022-11-23T03:20:50;14.98;;;9.35;;
53781;SDS011;39692;53.114;7.060;2022-11-23T03:23:15;17.10;;;10.27;;
53781;SDS011;39692;53.114;7.060;2022-11-23T03:25:41;15.15;;;9.65;;
53781;SDS011;39692;53.114;7.060;2022-11-23T03:28:07;16.70;;;8.93;;
53781;SDS011;39692;53.114;7.060;2022-11-23T03:30:32;15.63;;;9.13;;
53781;SDS011;39692;53.114;7.060;2022-11-23T03:32:58;15.68;;;9.02;;
53781;SDS011;39692;53.114;7.060;2022-11-23T03:35:24;15.05;;;9.05;;
53781;SDS011;39692;53.114;7.060;2022-11-23T03:37:50;14.25;;;8.95;;
53781;SDS011;39692;53.114;7.060;2022-11-23T03:40:15;16.17;;;9.20;;
53781;SDS011;39692;53.114;7.060;2022-11-23T03:42:41;16.95;;;9.75;;
53781;SDS011;39692;53.114;7.060;2022-11-23T03:45:07;15.00;;;9.32;;
53781;SDS011;39692;53.114;7.060;2022-11-23T03:47:34;13.43;;;8.43;;
53781;SDS011;39692;53.114;7.060;2022-11-23T03:50:00;14.85;;;9.20;;
53781;SDS011;39692;53.114;7.060;2022-11-23T03:52:26;13.88;;;8.35;;
53781;SDS011;39692;53.114;7.060;2022-11-23T03:54:52;16.27;;;9.73;;
53781;SDS011;39692;53.114;7.060;2022-11-23T03:57:17;16.08;;;9.55;;
53781;SDS011;39692;53.114;7.060;2022-11-23T03:59:43;14.73;;;8.52;;
53781;SDS011;39692;53.114;7.060;2022-11-23T04:02:08;20.35;;;11.15;;
53781;SDS011;39692;53.114;7.060;2022-11-23T04:04:34;18.33;;;8.68;;
53781;SDS011;39692;53.114;7.060;2022-11-23T04:07:00;14.82;;;9.38;;
53781;SDS011;39692;53.114;7.060;2022-11-23T04:09:26;17.35;;;9.82;;
53781;SDS011;39692;53.114;7.060;2022-11-23T04:11:52;17.40;;;9.50;;
53781;SDS011;39692;53.114;7.060;2022-11-23T04:14:17;16.40;;;9.20;;
53781;SDS011;39692;53.114;7.060;2022-11-23T04:16:43;17.75;;;9.10;;
53781;SDS011;39692;53.114;7.060;2022-11-23T04:19:09;16.02;;;9.35;;
53781;SDS011;39692;53.114;7.060;2022-11-23T04:21:35;17.35;;;10.05;;
53781;SDS011;39692;53.114;7.060;2022-11-23T04:24:00;17.17;;;9.30;;
53781;SDS011;39692;53.114;7.060;2022-11-23T04:26:26;19.52;;;9.02;;
53781;SDS011;39692;53.114;7.060;2022-11-23T04:28:52;15.90;;;8.70;;
53781;SDS011;39692;53.114;7.060;2022-11-23T04:31:17;15.98;;;9.50;;
53781;SDS011;39692;53.114;7.060;2022-11-23T04:33:43;12.82;;;8.77;;
53781;SDS011;39692;53.114;7.060;2022-11-23T04:36:09;15.63;;;9.73;;
53781;SDS011;39692;53.114;7.060;2022-11-23T04:38:34;19.38;;;9.80;;
53781;SDS011;39692;53.114;7.060;2022-11-23T04:41:00;19.17;;;8.65;;
53781;SDS011;39692;53.114;7.060;2022-11-23T04:43:26;15.30;;;8.90;;
53781;SDS011;39692;53.114;7.060;2022-11-23T04:45:57;16.98;;;10.07;;
53781;SDS011;39692;53.114;7.060;2022-11-23T04:48:22;16.58;;;9.57;;
53781;SDS011;39692;53.114;7.060;2022-11-23T04:50:48;20.83;;;10.68;;
53781;SDS011;39692;53.114;7.060;2022-11-23T04:53:14;16.75;;;9.68;;
53781;SDS011;39692;53.114;7.060;2022-11-23T04:55:40;14.45;;;8.90;;
53781;SDS011;39692;53.114;7.060;2022-11-23T04:58:05;16.33;;;8.85;;
53781;SDS011;39692;53.114;7.060;2022-11-23T05:00:31;18.13;;;9.77;;
53781;SDS011;39692;53.114;7.060;2022-11-23T05:03:00;21.17;;;9.90;;
53781;SDS011;39692;53.114;7.060;2022-11-23T05:05:25;16.85;;;9.70;;
53781;SDS011;39692;53.114;7.060;2022-11-23T05:07:51;17.60;;;8.35;;
53781;SDS011;39692;53.114;7.060;2022-11-23T05:10:17;16.95;;;9.35;;
53781;SDS011;39692;53.114;7.060;2022-11-23T05:12:43;18.88;;;8.90;;
53781;SDS011;39692;53.114;7.060;2022-11-23T05:15:09;15.60;;;9.35;;
53781;SDS011;39692;53.114;7.060;2022-11-23T05:17:36;19.98;;;10.05;;
53781;SDS011;39692;53.114;7.060;2022-11-23T05:20:02;19.17;;;10.35;;
53781;SDS011;39692;53.114;7.060;2022-11-23T05:22:28;15.45;;;9.43;;
53781;SDS011;39692;53.114;7.060;2022-11-23T05:24:54;18.98;;;9.77;;
53781;SDS011;39692;53.114;7.060;2022-11-23T05:27:19;18.92;;;10.05;;
53781;SDS011;39692;53.114;7.060;2022-11-23T05:29:45;18.10;;;9.60;;
53781;SDS011;39692;53.114;7.060;2022-11-23T05:32:11;17.92;;;10.43;;
53781;SDS011;39692;53.114;7.060;2022-11-23T05:34:36;16.75;;;9.75;;
53781;SDS011;39692;53.114;7.060;2022-11-23T05:37:02;17.00;;;8.82;;
53781;SDS011;39692;53.114;7.060;2022-11-23T05:39:28;18.27;;;8.40;;
53781;SDS011;39692;53.114;7.060;2022-11-23T05:41:54;16.00;;;8.57;;
53781;SDS011;39692;53.114;7.060;2022-11-23T05:44:19;18.63;;;9.23;;
53781;SDS011;39692;53.114;7.060;2022-11-23T05:46:45;18.75;;;9.18;;
53781;SDS011;39692;53.114;7.060;2022-11-23T05:49:10;15.85;;;8.73;;
53781;SDS011;39692;53.114;7.060;2022-11-23T05:51:36;18.38;;;8.98;;
53781;SDS011;39692;53.114;7.060;2022-11-23T05:54:02;19.15;;;9.75;;
53781;SDS011;39692;53.114;7.060;2022-11-23T05:56:28;17.58;;;9.98;;
53781;SDS011;39692;53.114;7.060;2022-11-23T05:58:54;16.63;;;8.73;;
53781;SDS011;39692;53.114;7.060;2022-11-23T06:01:20;17.80;;;8.90;;
53781;SDS011;39692;53.114;7.060;2022-11-23T06:03:48;19.10;;;10.35;;
53781;SDS011;39692;53.114;7.060;2022-11-23T06:06:14;20.88;;;9.73;;
53781;SDS011;39692;53.114;7.060;2022-11-23T06:08:40;19.35;;;9.50;;
53781;SDS011;39692;53.114;7.060;2022-11-23T06:11:05;17.48;;;8.60;;
53781;SDS011;39692;53.114;7.060;2022-11-23T06:13:31;17.45;;;9.73;;
53781;SDS011;39692;53.114;7.060;2022-11-23T06:15:57;15.13;;;8.75;;
53781;SDS011;39692;53.114;7.060;2022-11-23T06:18:22;21.70;;;8.18;;
53781;SDS011;39692;53.114;7.060;2022-11-23T06:20:48;17.25;;;9.38;;
53781;SDS011;39692;53.114;7.060;2022-11-23T06:23:14;15.02;;;9.20;;
53781;SDS011;39692;53.114;7.060;2022-11-23T06:25:40;17.90;;;8.30;;
53781;SDS011;39692;53.114;7.060;2022-11-23T06:28:05;17.48;;;7.70;;
53781;SDS011;39692;53.114;7.060;2022-11-23T06:30:31;17.58;;;7.47;;
53781;SDS011;39692;53.114;7.060;2022-11-23T06:33:00;16.60;;;8.77;;
53781;SDS011;39692;53.114;7.060;2022-11-23T06:35:27;17.00;;;7.63;;
53781;SDS011;39692;53.114;7.060;2022-11-23T06:37:53;18.60;;;7.63;;
53781;SDS011;39692;53.114;7.060;2022-11-23T06:40:19;11.35;;;7.10;;
53781;SDS011;39692;53.114;7.060;2022-11-23T06:42:44;14.50;;;7.97;;
53781;SDS011;39692;53.114;7.060;2022-11-23T06:45:11;13.35;;;7.85;;
53781;SDS011;39692;53.114;7.060;2022-11-23T06:47:37;17.52;;;7.78;;
53781;SDS011;39692;53.114;7.060;2022-11-23T06:50:03;14.60;;;7.07;;
53781;SDS011;39692;53.114;7.060;2022-11-23T06:52:30;15.93;;;6.75;;
53781;SDS011;39692;53.114;7.060;2022-11-23T06:54:55;15.23;;;7.63;;
53781;SDS011;39692;53.114;7.060;2022-11-23T06:57:21;13.23;;;7.68;;
53781;SDS011;39692;53.114;7.060;2022-11-23T06:59:47;14.82;;;6.93;;
53781;SDS011;39692;53.114;7.060;2022-11-23T07:02:13;11.82;;;6.40;;
53781;SDS011;39692;53.114;7.060;2022-11-23T07:04:38;12.50;;;6.45;;
53781;SDS011;39692;53.114;7.060;2022-11-23T07:07:06;10.75;;;5.57;;
53781;SDS011;39692;53.114;7.060;2022-11-23T07:09:32;10.50;;;5.30;;
53781;SDS011;39692;53.114;7.060;2022-11-23T07:11:58;12.35;;;6.30;;
53781;SDS011;39692;53.114;7.060;2022-11-23T07:14:23;8.43;;;5.25;;
53781;SDS011;39692;53.114;7.060;2022-11-23T07:16:49;16.95;;;6.55;;
53781;SDS011;39692;53.114;7.060;2022-11-23T07:19:15;11.43;;;5.75;;
53781;SDS011;39692;53.114;7.060;2022-11-23T07:21:41;11.40;;;6.13;;
53781;SDS011;39692;53.114;7.060;2022-11-23T07:24:06;10.90;;;4.93;;
53781;SDS011;39692;53.114;7.060;2022-11-23T07:26:32;8.65;;;4.43;;
53781;SDS011;39692;53.114;7.060;2022-11-23T07:28:58;7.55;;;3.97;;
53781;SDS011;39692;53.114;7.060;2022-11-23T07:31:24;10.52;;;4.97;;
53781;SDS011;39692;53.114;7.060;2022-11-23T07:33:49;12.40;;;4.75;;
53781;SDS011;39692;53.114;7.060;2022-11-23T07:36:15;11.40;;;4.57;;
53781;SDS011;39692;53.114;7.060;2022-11-23T07:38:41;7.95;;;4.00;;
53781;SDS011;39692;53.114;7.060;2022-11-23T07:41:06;7.85;;;3.88;;
53781;SDS011;39692;53.114;7.060;2022-11-23T07:43:32;8.27;;;3.78;;
53781;SDS011;39692;53.114;7.060;2022-11-23T07:45:58;9.07;;;4.68;;
53781;SDS011;39692;53.114;7.060;2022-11-23T07:48:23;9.48;;;4.88;;
53781;SDS011;39692;53.114;7.060;2022-11-23T07:50:52;14.05;;;4.28;;
53781;SDS011;39692;53.114;7.060;2022-11-23T07:53:18;10.35;;;3.97;;
53781;SDS011;39692;53.114;7.060;2022-11-23T07:55:44;7.65;;;3.17;;
53781;SDS011;39692;53.114;7.060;2022-11-23T07:58:10;11.98;;;3.28;;
53781;SDS011;39692;53.114;7.060;2022-11-23T08:00:36;7.38;;;3.97;;
53781;SDS011;39692;53.114;7.060;2022-11-23T08:03:02;8.90;;;3.30;;
53781;SDS011;39692;53.114;7.060;2022-11-23T08:05:31;8.35;;;3.80;;
53781;SDS011;39692;53.114;7.060;2022-11-23T08:07:59;14.35;;;4.30;;
53781;SDS011;39692;53.114;7.060;2022-11-23T08:10:26;10.15;;;4.30;;
53781;SDS011;39692;53.114;7.060;2022-11-23T08:12:55;8.80;;;3.72;;
53781;SDS011;39692;53.114;7.060;2022-11-23T08:15:25;9.18;;;4.35;;
53781;SDS011;39692;53.114;7.060;2022-11-23T08:17:58;9.48;;;3.58;;
53781;SDS011;39692;53.114;7.060;2022-11-23T08:20:25;9.05;;;4.10;;
53781;SDS011;39692;53.114;7.060;2022-11-23T08:22:52;12.55;;;4.07;;
53781;SDS011;39692;53.114;7.060;2022-11-23T08:25:21;11.90;;;4.00;;
53781;SDS011;39692;53.114;7.060;2022-11-23T08:27:52;11.93;;;4.47;;
53781;SDS011;39692;53.114;7.060;2022-11-23T08:30:26;9.25;;;3.88;;
53781;SDS011;39692;53.114;7.060;2022-11-23T08:32:53;9.55;;;3.42;;
53781;SDS011;39692;53.114;7.060;2022-11-23T08:35:19;13.35;;;4.20;;
53781;SDS011;39692;53.114;7.060;2022-11-23T08:37:45;7.90;;;3.67;;
53781;SDS011;39692;53.114;7.060;2022-11-23T08:40:11;8.32;;;4.55;;
53781;SDS011;39692;53.114;7.060;2022-11-23T08:42:37;8.27;;;3.40;;
53781;SDS011;39692;53.114;7.060;2022-11-23T08:45:03;7.22;;;4.22;;
53781;SDS011;39692;53.114;7.060;2022-11-23T08:47:32;11.82;;;4.38;;
53781;SDS011;39692;53.114;7.060;2022-11-23T08:49:58;12.30;;;4.20;;
53781;SDS011;39692;53.114;7.060;2022-11-23T08:52:24;18.23;;;4.65;;
53781;SDS011;39692;53.114;7.060;2022-11-23T08:54:51;8.70;;;3.63;;
53781;SDS011;39692;53.114;7.060;2022-11-23T08:57:16;10.50;;;4.10;;
53781;SDS011;39692;53.114;7.060;2022-11-23T08:59:42;9.82;;;4.40;;
53781;SDS011;39692;53.114;7.060;2022-11-23T09:02:12;10.27;;;3.80;;
53781;SDS011;39692;53.114;7.060;2022-11-23T09:04:38;11.63;;;3.97;;
53781;SDS011;39692;53.114;7.060;2022-11-23T09:07:05;8.48;;;3.95;;
53781;SDS011;39692;53.114;7.060;2022-11-23T09:09:31;9.18;;;3.80;;
53781;SDS011;39692;53.114;7.060;2022-11-23T09:11:57;11.30;;;3.90;;
53781;SDS011;39692;53.114;7.060;2022-11-23T09:14:23;11.05;;;4.45;;
53781;SDS011;39692;53.114;7.060;2022-11-23T09:16:49;12.20;;;4.35;;
53781;SDS011;39692;53.114;7.060;2022-11-23T09:19:14;7.32;;;4.60;;
53781;SDS011;39692;53.114;7.060;2022-11-23T09:21:40;7.70;;;4.07;;
53781;SDS011;39692;53.114;7.060;2022-11-23T09:24:08;7.43;;;3.97;;
53781;SDS011;39692;53.114;7.060;2022-11-23T09:26:38;9.35;;;4.07;;
53781;SDS011;39692;53.114;7.060;2022-11-23T09:29:04;10.70;;;4.18;;
53781;SDS011;39692;53.114;7.060;2022-11-23T09:31:31;12.30;;;4.60;;
53781;SDS011;39692;53.114;7.060;2022-11-23T09:33:56;10.93;;;4.32;;
53781;SDS011;39692;53.114;7.060;2022-11-23T09:36:22;9.40;;;4.25;;
53781;SDS011;39692;53.114;7.060;2022-11-23T09:38:51;7.97;;;4.15;;
53781;SDS011;39692;53.114;7.060;2022-11-23T09:44:04;11.95;;;4.15;;
53781;SDS011;39692;53.114;7.060;2022-11-23T09:47:42;9.13;;;3.90;;
53781;SDS011;39692;53.114;7.060;2022-11-23T09:52:47;11.82;;;4.03;;
53781;SDS011;39692;53.114;7.060;2022-11-23T09:57:48;12.63;;;3.83;;
53781;SDS011;39692;53.114;7.060;2022-11-23T10:00:22;12.38;;;4.57;;
53781;SDS011;39692;53.114;7.060;2022-11-23T10:02:48;8.10;;;3.42;;
53781;SDS011;39692;53.114;7.060;2022-11-23T10:05:17;8.40;;;3.67;;
53781;SDS011;39692;53.114;7.060;2022-11-23T10:10:41;8.45;;;3.53;;
53781;SDS011;39692;53.114;7.060;2022-11-23T10:18:18;10.02;;;3.47;;
53781;SDS011;39692;53.114;7.060;2022-11-23T10:20:51;8.60;;;2.97;;
53781;SDS011;39692;53.114;7.060;2022-11-23T10:26:17;9.98;;;3.90;;
53781;SDS011;39692;53.114;7.060;2022-11-23T10:28:45;6.93;;;3.20;;
53781;SDS011;39692;53.114;7.060;2022-11-23T10:31:18;11.23;;;3.28;;
53781;SDS011;39692;53.114;7.060;2022-11-23T10:36:34;10.68;;;3.33;;
53781;SDS011;39692;53.114;7.060;2022-11-23T10:39:04;8.63;;;3.83;;
53781;SDS011;39692;53.114;7.060;2022-11-23T10:41:58;14.18;;;3.45;;
53781;SDS011;39692;53.114;7.060;2022-11-23T10:47:01;25.27;;;3.70;;
53781;SDS011;39692;53.114;7.060;2022-11-23T10:49:28;6.43;;;3.05;;
53781;SDS011;39692;53.114;7.060;2022-11-23T10:54:37;8.30;;;3.53;;
53781;SDS011;39692;53.114;7.060;2022-11-23T11:02:23;9.25;;;4.25;;
53781;SDS011;39692;53.114;7.060;2022-11-23T11:04:49;13.13;;;3.90;;
53781;SDS011;39692;53.114;7.060;2022-11-23T11:07:20;7.22;;;3.05;;
53781;SDS011;39692;53.114;7.060;2022-11-23T11:09:52;9.85;;;3.30;;
53781;SDS011;39692;53.114;7.060;2022-11-23T11:12:19;9.93;;;4.95;;
53781;SDS011;39692;53.114;7.060;2022-11-23T11:14:58;7.82;;;2.88;;
53781;SDS011;39692;53.114;7.060;2022-11-23T11:17:31;8.43;;;3.08;;
53781;SDS011;39692;53.114;7.060;2022-11-23T11:19:58;6.28;;;2.60;;
53781;SDS011;39692;53.114;7.060;2022-11-23T11:22:32;8.63;;;2.95;;
53781;SDS011;39692;53.114;7.060;2022-11-23T11:25:00;13.15;;;3.47;;
53781;SDS011;39692;53.114;7.060;2022-11-23T11:27:27;7.20;;;2.70;;
53781;SDS011;39692;53.114;7.060;2022-11-23T11:29:54;11.82;;;3.50;;
53781;SDS011;39692;53.114;7.060;2022-11-23T11:33:05;6.50;;;2.55;;
53781;SDS011;39692;53.114;7.060;2022-11-23T11:40:08;11.25;;;3.38;;
53781;SDS011;39692;53.114;7.060;2022-11-23T11:42:58;11.05;;;3.35;;
53781;SDS011;39692;53.114;7.060;2022-11-23T11:45:28;10.68;;;4.32;;
53781;SDS011;39692;53.114;7.060;2022-11-23T11:47:59;13.98;;;4.50;;
53781;SDS011;39692;53.114;7.060;2022-11-23T11:50:49;11.55;;;4.00;;
53781;SDS011;39692;53.114;7.060;2022-11-23T11:53:17;12.50;;;3.65;;
53781;SDS011;39692;53.114;7.060;2022-11-23T11:56:03;12.27;;;3.13;;
53781;SDS011;39692;53.114;7.060;2022-11-23T11:58:50;9.52;;;3.58;;
53781;SDS011;39692;53.114;7.060;2022-11-23T12:04:08;8.05;;;2.72;;
53781;SDS011;39692;53.114;7.060;2022-11-23T12:06:45;8.90;;;3.83;;
53781;SDS011;39692;53.114;7.060;2022-11-23T12:09:17;10.52;;;3.15;;
53781;SDS011;39692;53.114;7.060;2022-11-23T12:11:47;8.38;;;2.80;;
53781;SDS011;39692;53.114;7.060;2022-11-23T12:14:13;9.63;;;3.20;;
53781;SDS011;39692;53.114;7.060;2022-11-23T12:22:22;8.75;;;3.22;;
53781;SDS011;39692;53.114;7.060;2022-11-23T12:38:36;10.50;;;5.03;;
53781;SDS011;39692;53.114;7.060;2022-11-23T12:49:00;7.88;;;4.07;;
53781;SDS011;39692;53.114;7.060;2022-11-23T12:59:36;8.23;;;3.50;;
53781;SDS011;39692;53.114;7.060;2022-11-23T13:02:07;10.85;;;3.45;;
53781;SDS011;39692;53.114;7.060;2022-11-23T13:07:29;6.68;;;3.30;;
53781;SDS011;39692;53.114;7.060;2022-11-23T13:15:46;7.65;;;3.63;;
53781;SDS011;39692;53.114;7.060;2022-11-23T13:18:59;7.85;;;3.38;;
53781;SDS011;39692;53.114;7.060;2022-11-23T13:23:58;10.13;;;3.28;;
53781;SDS011;39692;53.114;7.060;2022-11-23T13:26:25;9.00;;;3.20;;
53781;SDS011;39692;53.114;7.060;2022-11-23T13:28:52;7.75;;;2.50;;
53781;SDS011;39692;53.114;7.060;2022-11-23T13:33:49;12.07;;;2.83;;
53781;SDS011;39692;53.114;7.060;2022-11-23T13:38:54;9.98;;;3.50;;
53781;SDS011;39692;53.114;7.060;2022-11-23T13:44:11;7.72;;;3.05;;
53781;SDS011;39692;53.114;7.060;2022-11-23T13:46:41;10.88;;;3.88;;
53781;SDS011;39692;53.114;7.060;2022-11-23T13:49:27;8.38;;;2.95;;
53781;SDS011;39692;53.114;7.060;2022-11-23T13:52:19;6.65;;;2.47;;
53781;SDS011;39692;53.114;7.060;2022-11-23T13:57:31;9.05;;;2.85;;
53781;SDS011;39692;53.114;7.060;2022-11-23T14:14:24;5.70;;;1.83;;
53781;SDS011;39692;53.114;7.060;2022-11-23T14:28:33;6.80;;;2.13;;
53781;SDS011;39692;53.114;7.060;2022-11-23T14:37:35;6.07;;;2.17;;
53781;SDS011;39692;53.114;7.060;2022-11-23T14:39:50;3.38;;;1.65;;
53781;SDS011;39692;53.114;7.060;2022-11-23T14:42:18;6.55;;;1.63;;
53781;SDS011;39692;53.114;7.060;2022-11-23T14:44:47;5.43;;;1.88;;
53781;SDS011;39692;53.114;7.060;2022-11-23T14:47:23;4.47;;;1.83;;
53781;SDS011;39692;53.114;7.060;2022-11-23T14:49:51;7.05;;;1.58;;
53781;SDS011;39692;53.114;7.060;2022-11-23T14:52:23;4.45;;;1.38;;
53781;SDS011;39692;53.114;7.060;2022-11-23T14:54:56;5.53;;;1.73;;
53781;SDS011;39692;53.114;7.060;2022-11-23T14:57:25;7.90;;;2.05;;
53781;SDS011;39692;53.114;7.060;2022-11-23T15:00:01;6.82;;;2.20;;
53781;SDS011;39692;53.114;7.060;2022-11-23T15:02:34;5.28;;;1.83;;
53781;SDS011;39692;53.114;7.060;2022-11-23T15:05:04;5.15;;;2.13;;
53781;SDS011;39692;53.114;7.060;2022-11-23T15:10:17;8.82;;;1.73;;
53781;SDS011;39692;53.114;7.060;2022-11-23T15:13:18;3.25;;;1.38;;
53781;SDS011;39692;53.114;7.060;2022-11-23T15:15:47;8.40;;;1.70;;
53781;SDS011;39692;53.114;7.060;2022-11-23T15:20:54;6.78;;;2.25;;
53781;SDS011;39692;53.114;7.060;2022-11-23T15:23:25;3.72;;;1.70;;
53781;SDS011;39692;53.114;7.060;2022-11-23T15:26:22;5.68;;;1.67;;
53781;SDS011;39692;53.114;7.060;2022-11-23T15:28:50;6.43;;;1.65;;
53781;SDS011;39692;53.114;7.060;2022-11-23T15:33:44;4.68;;;1.65;;
53781;SDS011;39692;53.114;7.060;2022-11-23T15:36:12;4.53;;;1.48;;
53781;SDS011;39692;53.114;7.060;2022-11-23T15:38:40;4.05;;;1.85;;
53781;SDS011;39692;53.114;7.060;2022-11-23T15:41:06;4.95;;;1.67;;
53781;SDS011;39692;53.114;7.060;2022-11-23T15:43:32;5.93;;;1.98;;
53781;SDS011;39692;53.114;7.060;2022-11-23T15:46:04;9.45;;;2.40;;
53781;SDS011;39692;53.114;7.060;2022-11-23T15:48:36;10.50;;;2.67;;
53781;SDS011;39692;53.114;7.060;2022-11-23T15:51:03;4.15;;;1.88;;
53781;SDS011;39692;53.114;7.060;2022-11-23T15:53:31;7.80;;;1.65;;
53781;SDS011;39692;53.114;7.060;2022-11-23T15:56:24;7.72;;;1.98;;
53781;SDS011;39692;53.114;7.060;2022-11-23T15:58:59;5.03;;;1.65;;
53781;SDS011;39692;53.114;7.060;2022-11-23T16:01:28;8.77;;;1.70;;
53781;SDS011;39692;53.114;7.060;2022-11-23T16:03:58;5.53;;;2.03;;
53781;SDS011;39692;53.114;7.060;2022-11-23T16:09:31;4.47;;;2.05;;
53781;SDS011;39692;53.114;7.060;2022-11-23T16:15:39;2.88;;;1.50;;
53781;SDS011;39692;53.114;7.060;2022-11-23T16:20:47;5.45;;;1.67;;
53781;SDS011;39692;53.114;7.060;2022-11-23T16:23:18;7.28;;;2.03;;
53781;SDS011;39692;53.114;7.060;2022-11-23T16:25:50;3.10;;;1.45;;
53781;SDS011;39692;53.114;7.060;2022-11-23T16:30:52;9.57;;;2.65;;
53781;SDS011;39692;53.114;7.060;2022-11-23T16:33:19;6.03;;;2.05;;
53781;SDS011;39692;53.114;7.060;2022-11-23T16:35:45;3.78;;;1.65;;
53781;SDS011;39692;53.114;7.060;2022-11-23T16:38:11;4.15;;;1.42;;
53781;SDS011;39692;53.114;7.060;2022-11-23T16:40:38;4.07;;;1.60;;
53781;SDS011;39692;53.114;7.060;2022-11-23T16:43:04;2.70;;;1.40;;
53781;SDS011;39692;53.114;7.060;2022-11-23T16:45:30;7.20;;;1.80;;
53781;SDS011;39692;53.114;7.060;2022-11-23T16:47:57;4.85;;;1.88;;
53781;SDS011;39692;53.114;7.060;2022-11-23T16:50:25;10.43;;;2.22;;
53781;SDS011;39692;53.114;7.060;2022-11-23T16:52:53;5.43;;;1.90;;
53781;SDS011;39692;53.114;7.060;2022-11-23T16:55:19;7.45;;;2.05;;
53781;SDS011;39692;53.114;7.060;2022-11-23T16:57:45;4.68;;;1.88;;
53781;SDS011;39692;53.114;7.060;2022-11-23T17:00:16;3.50;;;1.98;;
53781;SDS011;39692;53.114;7.060;2022-11-23T17:02:44;6.43;;;1.55;;
53781;SDS011;39692;53.114;7.060;2022-11-23T17:05:16;2.88;;;1.02;;
53781;SDS011;39692;53.114;7.060;2022-11-23T17:10:11;3.20;;;1.42;;
53781;SDS011;39692;53.114;7.060;2022-11-23T17:12:38;3.38;;;1.45;;
53781;SDS011;39692;53.114;7.060;2022-11-23T17:15:05;4.25;;;1.40;;
53781;SDS011;39692;53.114;7.060;2022-11-23T17:17:32;4.57;;;1.73;;
53781;SDS011;39692;53.114;7.060;2022-11-23T17:19:58;6.15;;;1.90;;
53781;SDS011;39692;53.114;7.060;2022-11-23T17:22:23;4.90;;;1.52;;
53781;SDS011;39692;53.114;7.060;2022-11-23T17:24:49;5.97;;;2.00;;